Time;durP1;ratioP1;P1;durP2;ratioP2;P2;SDS_P1;SDS_P2;PMS_P1;PMS_P2;Temp;Humidity;BMP_temperature;BMP_pressure;BME280_temperature;BME280_humidity;BME280_pressure;Samples;Min_cycle;Max_cycle;Signal;HPM_P1;HPM_P2
2022/09/11 00:00:58;;;;;;;19.90;17.00;;;16.50;99.90;;;;;;5068105;28;20545;-79
2022/09/11 00:03:26;;;;;;;18.40;15.90;;;16.50;99.90;;;;;;5056371;28;20486;-79
2022/09/11 00:05:55;;;;;;;15.77;13.97;;;16.50;99.90;;;;;;5083642;28;20460;-80
2022/09/11 00:08:22;;;;;;;18.03;15.70;;;16.50;99.90;;;;;;5072277;28;20465;-79
2022/09/11 00:10:49;;;;;;;17.53;15.20;;;16.50;99.90;;;;;;5072539;28;20525;-80
2022/09/11 00:13:20;;;;;;;18.20;15.33;;;16.50;99.90;;;;;;5070908;28;20485;-79
2022/09/11 00:15:48;;;;;;;19.07;15.87;;;16.50;99.90;;;;;;5072275;28;20455;-81
2022/09/11 00:18:17;;;;;;;22.30;17.47;;;16.50;99.90;;;;;;5070570;28;20454;-80
2022/09/11 00:20:49;;;;;;;17.20;14.87;;;16.50;99.90;;;;;;5063915;28;20523;-80
2022/09/11 00:23:18;;;;;;;17.07;15.37;;;16.40;99.90;;;;;;5069887;28;20464;-80
2022/09/11 00:25:45;;;;;;;17.90;15.93;;;16.40;99.90;;;;;;5071791;28;20474;-79
2022/09/11 00:28:14;;;;;;;15.77;14.13;;;16.40;99.90;;;;;;5071698;28;20514;-80
2022/09/11 00:30:42;;;;;;;15.80;14.20;;;16.30;99.90;;;;;;5072085;28;20509;-80
2022/09/11 00:33:09;;;;;;;21.80;16.10;;;16.30;99.90;;;;;;5071600;28;20993;-80
2022/09/11 00:35:36;;;;;;;16.13;14.53;;;16.30;99.90;;;;;;5081731;28;20522;-80
2022/09/11 00:38:03;;;;;;;15.23;13.63;;;16.30;99.90;;;;;;5076481;28;20477;-79
2022/09/11 00:40:31;;;;;;;17.53;15.73;;;16.20;99.90;;;;;;5072664;28;20500;-80
2022/09/11 00:42:59;;;;;;;15.30;13.90;;;16.20;99.90;;;;;;5070671;28;20489;-80
2022/09/11 00:45:27;;;;;;;16.40;14.77;;;16.20;99.90;;;;;;5078515;28;20507;-80
2022/09/11 00:47:58;;;;;;;16.27;14.67;;;16.20;99.90;;;;;;5078077;28;20445;-80
2022/09/11 00:50:28;;;;;;;16.70;13.63;;;16.20;99.90;;;;;;5072040;28;20519;-80
2022/09/11 00:52:59;;;;;;;16.40;13.83;;;16.10;99.90;;;;;;5071163;28;20454;-79
2022/09/11 00:55:31;;;;;;;16.80;15.00;;;16.20;99.90;;;;;;5073046;28;20883;-80
2022/09/11 00:58:03;;;;;;;15.83;14.23;;;16.10;99.90;;;;;;5072353;28;20451;-80
2022/09/11 01:00:30;;;;;;;17.30;15.53;;;16.10;99.90;;;;;;5072290;28;20497;-79
2022/09/11 01:02:58;;;;;;;17.50;15.17;;;16.10;99.90;;;;;;5069274;28;20510;-80
2022/09/11 01:05:28;;;;;;;17.97;15.53;;;16.00;99.90;;;;;;5073585;28;20543;-80
2022/09/11 01:07:56;;;;;;;17.77;14.27;;;16.00;99.90;;;;;;5071186;28;20962;-81
2022/09/11 01:10:36;;;;;;;16.47;14.77;;;16.00;99.90;;;;;;5071024;28;20472;-80
2022/09/11 01:13:10;;;;;;;15.37;13.47;;;16.00;99.90;;;;;;5070772;28;20518;-80
2022/09/11 01:15:46;;;;;;;17.30;15.27;;;16.00;99.90;;;;;;5075840;28;20546;-80
2022/09/11 01:18:18;;;;;;;16.00;14.40;;;16.00;99.90;;;;;;5072902;28;20469;-81
2022/09/11 01:21:01;;;;;;;19.30;14.57;;;16.00;99.90;;;;;;5072852;28;20477;-81
2022/09/11 01:23:53;;;;;;;15.30;13.70;;;16.00;99.90;;;;;;5051082;28;20447;-79
2022/09/11 01:26:37;;;;;;;16.80;15.10;;;16.00;99.90;;;;;;5067244;28;20490;-81
2022/09/11 01:29:12;;;;;;;15.70;14.10;;;16.00;99.90;;;;;;5070972;28;20548;-81
2022/09/11 01:31:57;;;;;;;17.10;15.17;;;16.00;99.90;;;;;;5072280;28;20496;-79
2022/09/11 01:34:30;;;;;;;20.77;15.60;;;16.00;99.90;;;;;;5087137;28;20444;-81
2022/09/11 01:37:02;;;;;;;15.77;14.07;;;16.00;99.90;;;;;;5085366;28;20537;-80
2022/09/11 01:39:35;;;;;;;15.67;13.90;;;16.00;99.90;;;;;;5083453;28;20519;-80
2022/09/11 01:42:05;;;;;;;16.17;14.47;;;16.00;99.90;;;;;;5091868;28;20481;-80
2022/09/11 01:44:37;;;;;;;17.90;16.10;;;16.00;99.90;;;;;;5089942;28;20493;-80
2022/09/11 01:47:09;;;;;;;16.27;14.67;;;16.00;99.90;;;;;;5085834;28;20494;-81
2022/09/11 01:49:39;;;;;;;15.10;13.50;;;16.00;99.90;;;;;;5072668;28;20461;-80
2022/09/11 01:52:10;;;;;;;16.20;14.50;;;16.00;99.90;;;;;;5072314;28;20505;-80
2022/09/11 01:54:41;;;;;;;14.80;13.30;;;16.00;99.90;;;;;;5089285;28;20503;-80
2022/09/11 01:57:13;;;;;;;17.33;15.37;;;16.00;99.90;;;;;;5076724;28;20453;-80
2022/09/11 01:59:45;;;;;;;13.60;12.20;;;16.00;99.90;;;;;;5069011;28;20450;-80
2022/09/11 02:02:17;;;;;;;17.23;15.43;;;16.10;99.90;;;;;;5066930;28;20573;-80
2022/09/11 02:04:49;;;;;;;15.73;14.13;;;16.10;99.90;;;;;;5071472;28;20488;-81
2022/09/11 02:07:20;;;;;;;18.03;15.77;;;16.10;99.90;;;;;;5070418;28;20446;-81
2022/09/11 02:09:53;;;;;;;17.47;14.53;;;16.10;99.90;;;;;;5063155;28;20531;-80
2022/09/11 02:12:25;;;;;;;17.10;15.37;;;16.20;99.90;;;;;;5068575;28;20493;-81
2022/09/11 02:14:54;;;;;;;18.33;15.30;;;16.20;99.90;;;;;;5068851;28;20531;-80
2022/09/11 02:17:30;;;;;;;18.80;15.40;;;16.20;99.90;;;;;;5071513;28;20443;-80
2022/09/11 02:19:59;;;;;;;17.77;15.83;;;16.20;99.90;;;;;;5070297;28;20459;-80
2022/09/11 02:22:26;;;;;;;17.50;15.70;;;16.20;99.90;;;;;;5071325;28;20455;-81
2022/09/11 02:24:53;;;;;;;18.30;16.40;;;16.20;99.90;;;;;;5077726;28;20466;-81
2022/09/11 02:27:23;;;;;;;19.20;17.17;;;16.30;99.90;;;;;;5071119;28;20452;-81
2022/09/11 02:29:52;;;;;;;19.17;17.07;;;16.30;99.90;;;;;;5070432;28;20455;-81
2022/09/11 02:32:20;;;;;;;18.60;14.37;;;16.30;99.90;;;;;;5070447;28;20490;-81
2022/09/11 02:34:47;;;;;;;18.13;16.27;;;16.30;99.90;;;;;;5072574;28;20444;-80
2022/09/11 02:37:21;;;;;;;17.63;15.70;;;16.30;99.90;;;;;;5070173;28;20448;-81
2022/09/11 02:40:01;;;;;;;18.80;15.57;;;16.30;99.90;;;;;;5069922;28;20887;-80
2022/09/11 02:42:44;;;;;;;17.43;15.57;;;16.30;99.90;;;;;;5050273;28;20476;-81
2022/09/11 02:45:20;;;;;;;18.23;15.73;;;16.30;99.90;;;;;;5066678;28;20487;-82
2022/09/11 02:47:56;;;;;;;18.50;16.47;;;16.30;99.90;;;;;;5063016;28;20460;-81
2022/09/11 02:50:29;;;;;;;17.33;15.43;;;16.30;99.90;;;;;;5068587;28;20475;-81
2022/09/11 02:53:03;;;;;;;20.87;18.03;;;16.30;99.90;;;;;;5071026;28;20460;-78
2022/09/11 02:55:43;;;;;;;17.90;16.00;;;16.20;99.90;;;;;;5081573;28;20514;-79
2022/09/11 02:58:17;;;;;;;21.43;16.50;;;16.30;99.90;;;;;;5068958;28;20546;-79
2022/09/11 03:00:46;;;;;;;20.53;17.63;;;16.30;99.90;;;;;;5068855;28;20475;-79
2022/09/11 03:03:15;;;;;;;19.87;17.87;;;16.30;99.90;;;;;;5068088;28;20490;-80
2022/09/11 03:05:42;;;;;;;19.63;16.63;;;16.30;99.90;;;;;;5068682;28;21058;-79
2022/09/11 03:08:09;;;;;;;19.60;17.50;;;16.30;99.90;;;;;;5068834;28;20462;-80
2022/09/11 03:10:37;;;;;;;18.63;16.63;;;16.30;99.90;;;;;;5069390;28;20883;-79
2022/09/11 03:13:04;;;;;;;20.63;17.50;;;16.30;99.90;;;;;;5068155;28;21023;-80
2022/09/11 03:15:31;;;;;;;20.00;17.50;;;16.40;99.90;;;;;;5068867;28;20511;-79
2022/09/11 03:17:57;;;;;;;23.57;18.03;;;16.40;99.90;;;;;;5068188;28;21005;-78
2022/09/11 03:20:25;;;;;;;24.50;18.60;;;16.40;99.90;;;;;;5070420;28;20537;-80
2022/09/11 03:22:52;;;;;;;20.87;18.50;;;16.40;99.90;;;;;;5088154;28;20568;-79
2022/09/11 03:25:20;;;;;;;21.83;19.00;;;16.40;99.90;;;;;;5086260;28;20566;-80
2022/09/11 03:27:46;;;;;;;23.50;19.83;;;16.40;99.90;;;;;;5068372;28;20464;-80
2022/09/11 03:30:13;;;;;;;28.93;20.27;;;16.40;99.90;;;;;;5067441;28;20552;-80
2022/09/11 03:32:40;;;;;;;36.10;26.17;;;16.40;99.90;;;;;;5086769;28;20458;-79
2022/09/11 03:35:08;;;;;;;32.60;24.40;;;16.40;99.90;;;;;;5080618;28;20446;-81
2022/09/11 03:37:36;;;;;;;30.13;23.80;;;16.40;99.90;;;;;;5067627;28;20522;-82
2022/09/11 03:40:03;;;;;;;33.10;24.80;;;16.40;99.90;;;;;;5069272;28;20471;-81
2022/09/11 03:42:31;;;;;;;29.50;25.80;;;16.40;99.90;;;;;;5071888;28;20540;-79
2022/09/11 03:44:58;;;;;;;31.93;25.40;;;16.40;99.90;;;;;;5071171;28;20540;-79
2022/09/11 03:47:25;;;;;;;32.17;25.23;;;16.40;99.90;;;;;;5088422;28;20925;-79
2022/09/11 03:49:52;;;;;;;36.23;24.50;;;16.40;99.90;;;;;;5089443;28;20518;-79
2022/09/11 03:52:20;;;;;;;33.47;25.17;;;16.40;99.90;;;;;;5087925;28;20448;-81
2022/09/11 03:54:48;;;;;;;35.07;25.23;;;16.40;99.90;;;;;;5089100;28;20553;-80
2022/09/11 03:57:15;;;;;;;37.07;27.17;;;16.40;99.90;;;;;;5072024;28;20454;-80
2022/09/11 03:59:42;;;;;;;28.90;22.57;;;16.40;99.90;;;;;;5071532;28;20462;-82
2022/09/11 04:02:08;;;;;;;32.30;24.60;;;16.40;99.90;;;;;;5070669;28;20473;-79
2022/09/11 04:04:35;;;;;;;34.57;25.97;;;16.40;99.90;;;;;;5069958;28;20608;-79
2022/09/11 04:07:02;;;;;;;33.60;24.17;;;16.40;99.90;;;;;;5070808;28;20454;-81
2022/09/11 04:09:30;;;;;;;35.07;27.50;;;16.50;99.90;;;;;;5070078;28;20527;-81
2022/09/11 04:11:58;;;;;;;33.43;24.80;;;16.40;99.90;;;;;;5084440;28;20484;-80
2022/09/11 04:14:25;;;;;;;32.97;23.97;;;16.50;99.90;;;;;;5084244;28;21000;-78
2022/09/11 04:16:53;;;;;;;36.50;27.07;;;16.50;99.90;;;;;;5070990;28;20544;-79
2022/09/11 04:19:22;;;;;;;35.10;25.50;;;16.50;99.90;;;;;;5070083;28;20462;-81
2022/09/11 04:21:49;;;;;;;41.27;28.97;;;16.50;99.90;;;;;;5071033;28;20477;-80
2022/09/11 04:24:16;;;;;;;35.47;26.17;;;16.50;99.90;;;;;;5070229;28;20537;-81
2022/09/11 04:26:42;;;;;;;36.70;26.67;;;16.50;99.90;;;;;;5069979;28;20444;-80
2022/09/11 04:29:11;;;;;;;38.03;28.77;;;16.50;99.90;;;;;;5070247;28;20513;-80
2022/09/11 04:31:39;;;;;;;41.70;27.47;;;16.50;99.90;;;;;;5080803;28;20522;-81
2022/09/11 04:34:08;;;;;;;36.83;27.20;;;16.40;99.90;;;;;;5089000;28;20516;-80
2022/09/11 04:36:34;;;;;;;47.13;30.70;;;16.50;99.90;;;;;;5070602;28;20449;-80
2022/09/11 04:39:01;;;;;;;38.60;28.03;;;16.40;99.90;;;;;;5071181;28;20449;-83
2022/09/11 04:41:28;;;;;;;46.90;30.93;;;16.40;99.90;;;;;;5070097;28;20545;-81
2022/09/11 04:43:56;;;;;;;42.83;27.33;;;16.40;99.90;;;;;;5069374;28;20443;-82
2022/09/11 04:46:25;;;;;;;45.20;29.00;;;16.40;99.90;;;;;;5071495;28;20477;-80
2022/09/11 04:48:54;;;;;;;36.87;27.20;;;16.40;99.90;;;;;;5069922;28;20470;-80
2022/09/11 04:51:23;;;;;;;40.87;27.70;;;16.40;99.90;;;;;;5069041;28;20481;-78
2022/09/11 04:53:50;;;;;;;36.30;27.90;;;16.40;99.90;;;;;;5068592;28;20546;-80
2022/09/11 04:56:20;;;;;;;41.70;27.40;;;16.40;99.90;;;;;;5069702;28;20453;-78
2022/09/11 04:58:47;;;;;;;38.30;26.17;;;16.40;99.90;;;;;;5070964;28;20447;-78
2022/09/11 05:01:16;;;;;;;33.33;23.80;;;16.40;99.90;;;;;;5071413;28;20468;-79
2022/09/11 05:03:44;;;;;;;44.43;29.37;;;16.40;99.90;;;;;;5069561;28;20479;-80
2022/09/11 05:06:15;;;;;;;43.07;30.07;;;16.30;99.90;;;;;;5069775;28;20579;-79
2022/09/11 05:08:42;;;;;;;47.33;29.80;;;16.20;99.90;;;;;;5068716;28;20551;-80
2022/09/11 05:11:12;;;;;;;32.97;23.97;;;16.20;99.90;;;;;;5074503;28;20465;-80
2022/09/11 05:13:39;;;;;;;34.57;26.30;;;16.20;99.90;;;;;;5080523;28;20485;-81
2022/09/11 05:16:08;;;;;;;38.57;27.03;;;16.30;99.90;;;;;;5071267;28;20466;-80
2022/09/11 05:18:35;;;;;;;37.20;27.50;;;16.40;99.90;;;;;;5070380;28;20489;-81
2022/09/11 05:21:05;;;;;;;40.20;26.50;;;16.40;99.90;;;;;;5074725;28;20534;-80
2022/09/11 05:23:33;;;;;;;41.30;27.80;;;16.40;99.90;;;;;;5082744;28;20527;-79
2022/09/11 05:26:01;;;;;;;34.00;24.87;;;16.40;99.90;;;;;;5070189;28;20479;-81
2022/09/11 05:28:29;;;;;;;33.90;25.27;;;16.40;99.90;;;;;;5068008;28;20460;-80
2022/09/11 05:30:57;;;;;;;38.70;28.00;;;16.40;99.90;;;;;;5069408;28;21029;-82
2022/09/11 05:33:25;;;;;;;40.20;28.30;;;16.50;99.90;;;;;;5069617;28;20453;-79
2022/09/11 05:35:52;;;;;;;46.63;29.43;;;16.40;99.90;;;;;;5070592;28;20971;-81
2022/09/11 05:38:22;;;;;;;43.03;28.83;;;16.30;99.90;;;;;;5069408;28;20528;-81
2022/09/11 05:40:51;;;;;;;38.50;27.97;;;16.40;99.90;;;;;;5077254;28;20470;-83
2022/09/11 05:43:18;;;;;;;39.10;26.83;;;16.40;99.90;;;;;;5094820;28;20480;-83
2022/09/11 05:45:53;;;;;;;52.17;32.90;;;16.50;99.90;;;;;;5085264;28;20479;-81
2022/09/11 05:48:20;;;;;;;46.20;30.43;;;16.50;99.90;;;;;;5076134;28;20439;-81
2022/09/11 05:50:52;;;;;;;47.60;30.43;;;16.40;99.90;;;;;;5068511;28;20529;-80
2022/09/11 05:53:21;;;;;;;42.13;28.17;;;16.40;99.90;;;;;;5066268;28;20497;-81
2022/09/11 05:55:47;;;;;;;87.17;41.90;;;16.40;99.90;;;;;;5066841;28;20446;-79
2022/09/11 05:58:16;;;;;;;48.40;31.10;;;16.20;99.90;;;;;;5065618;28;20963;-80
2022/09/11 06:00:45;;;;;;;70.00;38.27;;;16.20;99.90;;;;;;5066359;28;20507;-79
2022/09/11 06:03:12;;;;;;;48.27;31.43;;;16.20;99.90;;;;;;5083793;28;20459;-80
2022/09/11 06:05:39;;;;;;;45.17;30.60;;;16.20;99.90;;;;;;5065381;28;20485;-80
2022/09/11 06:08:06;;;;;;;82.17;42.50;;;16.20;99.90;;;;;;5064682;28;20446;-79
2022/09/11 06:10:34;;;;;;;55.17;32.20;;;16.10;99.90;;;;;;5061540;28;20498;-79
2022/09/11 06:13:01;;;;;;;49.97;32.77;;;16.10;99.90;;;;;;5082765;28;20515;-79
2022/09/11 06:15:28;;;;;;;52.03;30.60;;;16.20;99.90;;;;;;5064512;28;20457;-80
2022/09/11 06:17:55;;;;;;;46.47;28.93;;;16.10;99.90;;;;;;5069846;28;20455;-81
2022/09/11 06:20:22;;;;;;;51.90;30.83;;;16.10;99.90;;;;;;5065799;28;20475;-80
2022/09/11 06:22:49;;;;;;;44.73;30.07;;;16.10;99.90;;;;;;5062855;28;20500;-80
2022/09/11 06:25:16;;;;;;;42.13;28.30;;;16.10;99.90;;;;;;5063754;28;20470;-79
2022/09/11 06:27:44;;;;;;;49.50;29.97;;;16.20;99.90;;;;;;5066516;28;20520;-79
2022/09/11 06:30:12;;;;;;;49.70;30.70;;;16.20;99.90;;;;;;5055705;28;20486;-80
2022/09/11 06:32:40;;;;;;;47.13;30.00;;;16.10;99.90;;;;;;5043432;28;21080;-78
2022/09/11 06:35:07;;;;;;;42.27;27.63;;;16.10;99.90;;;;;;5057100;28;20470;-80
2022/09/11 06:37:34;;;;;;;69.63;37.83;;;16.20;99.90;;;;;;5065523;28;20451;-80
2022/09/11 06:40:01;;;;;;;62.53;34.10;;;16.20;99.90;;;;;;5068478;28;20456;-79
2022/09/11 06:42:29;;;;;;;63.80;34.87;;;16.20;99.90;;;;;;5062002;28;20944;-80
2022/09/11 06:44:57;;;;;;;45.20;28.37;;;16.20;99.90;;;;;;5061513;28;20467;-80
2022/09/11 06:47:24;;;;;;;53.00;31.13;;;16.40;99.90;;;;;;5063534;28;20485;-79
2022/09/11 06:49:51;;;;;;;48.97;31.77;;;16.40;99.90;;;;;;5076213;28;20481;-78
2022/09/11 06:52:18;;;;;;;48.97;31.13;;;16.50;99.90;;;;;;5079087;22;20588;-81
2022/09/11 06:54:44;;;;;;;42.90;28.43;;;16.50;99.90;;;;;;5048906;28;20543;-80
2022/09/11 06:57:11;;;;;;;47.77;28.90;;;16.50;99.90;;;;;;5046919;28;20441;-80
2022/09/11 06:59:38;;;;;;;56.23;32.30;;;16.60;99.90;;;;;;5049355;28;20570;-79
2022/09/11 07:02:06;;;;;;;63.70;37.43;;;16.50;99.90;;;;;;5049110;28;20468;-80
2022/09/11 07:04:33;;;;;;;61.00;34.40;;;16.50;99.90;;;;;;5052693;28;20458;-79
2022/09/11 07:07:00;;;;;;;66.53;38.10;;;16.40;99.90;;;;;;5054547;28;20484;-80
2022/09/11 07:09:27;;;;;;;55.43;31.57;;;16.50;99.90;;;;;;5048854;28;20444;-82
2022/09/11 07:11:53;;;;;;;65.67;36.50;;;16.60;99.90;;;;;;5047887;28;20979;-79
2022/09/11 07:14:22;;;;;;;46.80;27.40;;;16.50;99.90;;;;;;5053129;28;20470;-79
2022/09/11 07:16:49;;;;;;;45.50;29.50;;;16.50;99.90;;;;;;5053902;28;20456;-78
2022/09/11 07:19:18;;;;;;;54.33;31.50;;;16.60;99.90;;;;;;5053988;28;20465;-80
2022/09/11 07:21:44;;;;;;;47.27;29.70;;;16.60;99.90;;;;;;5047837;28;20514;-79
2022/09/11 07:24:11;;;;;;;44.37;30.13;;;16.70;99.90;;;;;;5054695;28;20489;-82
2022/09/11 07:26:38;;;;;;;49.40;29.30;;;16.70;99.90;;;;;;5034303;28;20486;-80
2022/09/11 07:29:05;;;;;;;59.57;30.73;;;16.70;99.90;;;;;;5049283;28;20827;-80
2022/09/11 07:31:33;;;;;;;50.60;29.20;;;16.70;99.90;;;;;;5054494;28;20471;-81
2022/09/11 07:34:01;;;;;;;52.87;30.47;;;16.60;99.90;;;;;;5053593;28;20867;-83
2022/09/11 07:36:32;;;;;;;55.53;30.03;;;16.80;99.90;;;;;;5055989;28;20957;-81
2022/09/11 07:38:59;;;;;;;53.23;30.27;;;16.90;99.90;;;;;;5051527;28;20554;-81
2022/09/11 07:41:27;;;;;;;51.80;29.60;;;16.90;99.90;;;;;;5035870;28;20475;-80
2022/09/11 07:43:55;;;;;;;65.37;35.67;;;16.80;99.90;;;;;;5037127;28;20482;-80
2022/09/11 07:46:24;;;;;;;62.93;34.07;;;16.80;99.90;;;;;;5054390;28;20497;-81
2022/09/11 07:48:51;;;;;;;63.87;34.87;;;16.80;99.90;;;;;;5054281;28;20484;-82
2022/09/11 07:51:18;;;;;;;72.07;40.90;;;16.90;99.90;;;;;;5054036;28;20496;-80
2022/09/11 07:53:48;;;;;;;53.93;30.30;;;16.70;99.90;;;;;;5053765;28;20425;-81
2022/09/11 07:56:17;;;;;;;79.47;39.80;;;16.80;99.90;;;;;;5054011;28;20466;-80
2022/09/11 07:58:45;;;;;;;60.63;33.93;;;16.70;99.90;;;;;;5054881;28;20459;-81
2022/09/11 08:01:14;;;;;;;64.97;34.77;;;16.70;99.90;;;;;;5054040;28;20474;-81
2022/09/11 08:03:42;;;;;;;53.60;32.83;;;16.70;99.90;;;;;;5053573;28;20451;-82
2022/09/11 08:06:12;;;;;;;59.73;31.70;;;16.80;99.90;;;;;;5053917;28;20484;-80
2022/09/11 08:08:39;;;;;;;89.60;42.47;;;16.80;99.90;;;;;;5054191;28;20885;-81
2022/09/11 08:11:10;;;;;;;79.53;39.63;;;16.80;99.90;;;;;;5054585;28;20454;-79
2022/09/11 08:13:37;;;;;;;60.33;34.60;;;16.70;99.90;;;;;;5051649;28;20455;-79
2022/09/11 08:16:05;;;;;;;65.07;36.53;;;16.70;99.90;;;;;;5042937;28;20490;-80
2022/09/11 08:18:40;;;;;;;79.13;38.50;;;16.70;99.90;;;;;;5045833;28;20970;-81
2022/09/11 08:21:09;;;;;;;67.77;37.07;;;16.80;99.90;;;;;;5040722;28;20518;-80
2022/09/11 08:23:36;;;;;;;92.63;43.37;;;16.80;99.90;;;;;;5048465;28;20474;-80
2022/09/11 08:26:05;;;;;;;67.30;36.10;;;16.80;99.90;;;;;;5059930;28;20479;-79
2022/09/11 08:28:34;;;;;;;70.83;37.50;;;16.80;99.90;;;;;;5057585;28;20455;-82
2022/09/11 08:31:01;;;;;;;95.03;42.83;;;16.80;99.90;;;;;;5055704;28;20464;-82
2022/09/11 08:33:28;;;;;;;93.37;46.67;;;16.70;99.90;;;;;;5045781;28;20460;-81
2022/09/11 08:35:56;;;;;;;79.13;40.70;;;16.80;99.90;;;;;;5048771;28;20500;-81
2022/09/11 08:38:23;;;;;;;114.53;48.80;;;16.80;99.90;;;;;;5050587;28;20467;-80
2022/09/11 08:40:50;;;;;;;92.73;45.63;;;16.90;99.90;;;;;;5049756;28;20459;-80
2022/09/11 08:43:22;;;;;;;65.80;35.43;;;16.70;99.90;;;;;;5051346;28;20464;-81
2022/09/11 08:45:54;;;;;;;92.47;44.83;;;16.80;99.90;;;;;;5057457;28;20451;-82
2022/09/11 08:48:27;;;;;;;55.93;31.77;;;16.80;99.90;;;;;;5054212;28;20477;-81
2022/09/11 08:50:54;;;;;;;54.30;32.63;;;16.90;99.90;;;;;;5047730;28;20455;-81
2022/09/11 08:53:21;;;;;;;73.83;41.37;;;17.00;99.90;;;;;;5051094;28;20451;-80
2022/09/11 08:55:52;;;;;;;56.70;33.90;;;17.00;99.90;;;;;;5051733;28;20450;-80
2022/09/11 08:58:29;;;;;;;58.00;36.03;;;17.00;99.90;;;;;;5045857;28;20451;-80
2022/09/11 09:01:09;;;;;;;49.10;31.07;;;17.00;99.90;;;;;;5055966;28;20931;-81
2022/09/11 09:04:02;;;;;;;50.53;32.43;;;17.00;99.90;;;;;;5053136;28;20453;-80
2022/09/11 09:06:45;;;;;;;85.87;42.57;;;16.90;99.90;;;;;;5039748;28;20484;-81
2022/09/11 09:09:25;;;;;;;54.73;32.90;;;16.80;99.90;;;;;;5045915;28;20448;-79
2022/09/11 09:11:57;;;;;;;45.70;29.43;;;16.90;99.90;;;;;;5056666;28;20482;-79
2022/09/11 09:14:47;;;;;;;58.00;34.37;;;17.00;99.90;;;;;;5055480;28;20459;-82
2022/09/11 09:17:19;;;;;;;73.63;38.73;;;17.00;99.90;;;;;;5055512;28;20468;-81
2022/09/11 09:19:51;;;;;;;56.60;32.83;;;17.00;99.90;;;;;;5055854;28;20467;-81
2022/09/11 09:22:24;;;;;;;53.20;31.30;;;17.10;99.90;;;;;;5055938;28;20484;-82
2022/09/11 09:24:55;;;;;;;53.73;29.13;;;17.20;99.90;;;;;;5052297;28;20471;-80
2022/09/11 09:27:29;;;;;;;41.60;28.40;;;17.30;99.90;;;;;;5053166;28;20522;-79
2022/09/11 09:29:58;;;;;;;50.83;33.03;;;17.30;99.90;;;;;;5045244;28;21011;-86
2022/09/11 09:32:31;;;;;;;49.90;30.07;;;17.30;99.90;;;;;;5052075;28;20554;-80
2022/09/11 09:35:03;;;;;;;49.00;30.53;;;17.30;99.90;;;;;;5053840;28;20458;-80
2022/09/11 09:37:30;;;;;;;45.70;29.93;;;17.30;99.90;;;;;;5055394;28;20546;-80
2022/09/11 09:39:59;;;;;;;60.83;36.20;;;17.30;99.90;;;;;;5057685;28;20447;-80
2022/09/11 09:42:54;;;;;;;49.30;31.27;;;17.30;99.90;;;;;;5056777;28;20509;-80
2022/09/11 09:45:42;;;;;;;54.30;32.47;;;17.40;99.90;;;;;;5047442;28;20459;-81
2022/09/11 09:48:16;;;;;;;59.00;36.03;;;17.40;99.90;;;;;;5053722;28;20585;-84
2022/09/11 09:50:44;;;;;;;61.47;36.80;;;17.40;99.90;;;;;;5055517;28;20451;-86
2022/09/11 09:53:16;;;;;;;50.97;32.30;;;17.40;99.90;;;;;;5047472;28;20560;-80
2022/09/11 09:55:46;;;;;;;50.13;32.17;;;17.50;99.90;;;;;;5049811;28;20515;-81
2022/09/11 09:58:13;;;;;;;55.80;34.90;;;17.40;99.90;;;;;;5049858;28;20448;-80
2022/09/11 10:00:41;;;;;;;64.03;36.17;;;17.50;99.90;;;;;;5049454;28;20541;-83
2022/09/11 10:03:21;;;;;;;61.63;37.00;;;17.40;99.90;;;;;;5044965;28;20553;-84
2022/09/11 10:05:49;;;;;;;76.80;41.40;;;17.30;99.90;;;;;;5047222;28;20920;-84
2022/09/11 10:09:15;;;;;;;62.77;36.57;;;17.30;99.90;;;;;;5045650;28;20493;-80
2022/09/11 10:11:42;;;;;;;57.90;35.83;;;17.20;99.90;;;;;;5032926;28;21022;-81
2022/09/11 10:14:28;;;;;;;57.33;35.37;;;17.20;99.90;;;;;;5047788;28;20549;-82
2022/09/11 10:16:55;;;;;;;45.47;29.73;;;17.30;99.90;;;;;;5057492;28;20452;-82
2022/09/11 10:19:40;;;;;;;53.23;33.13;;;17.30;99.90;;;;;;5044102;28;20491;-78
2022/09/11 10:22:30;;;;;;;52.80;31.23;;;17.40;99.90;;;;;;5054339;28;20551;-81
2022/09/11 10:25:25;;;;;;;43.63;30.10;;;17.50;99.90;;;;;;5056252;28;20452;-83
2022/09/11 10:28:09;;;;;;;45.00;27.63;;;17.40;99.90;;;;;;5053022;28;20898;-81
2022/09/11 10:30:47;;;;;;;53.77;33.03;;;17.60;99.90;;;;;;5058398;28;20443;-80
2022/09/11 10:33:22;;;;;;;58.70;35.40;;;17.70;99.90;;;;;;5039140;28;20476;-81
2022/09/11 10:35:59;;;;;;;62.23;37.70;;;17.70;99.90;;;;;;5039679;28;20424;-80
2022/09/11 10:38:37;;;;;;;51.03;32.73;;;17.60;99.90;;;;;;5039685;28;20945;-79
2022/09/11 10:41:18;;;;;;;45.73;30.83;;;17.60;99.90;;;;;;5038329;28;20972;-80
2022/09/11 10:43:54;;;;;;;50.90;34.43;;;17.70;99.90;;;;;;5056836;28;20461;-80
2022/09/11 10:46:36;;;;;;;49.10;30.07;;;17.80;99.90;;;;;;5058320;28;20460;-84
2022/09/11 10:49:21;;;;;;;44.20;30.20;;;18.00;99.90;;;;;;5050057;28;20461;-80
2022/09/11 10:52:15;;;;;;;43.47;31.60;;;18.10;99.90;;;;;;5046779;28;20480;-81
2022/09/11 10:54:56;;;;;;;41.73;29.70;;;18.10;99.90;;;;;;5056177;28;20464;-80
2022/09/11 10:57:28;;;;;;;42.10;29.57;;;18.10;99.90;;;;;;5058537;28;20452;-82
2022/09/11 11:00:02;;;;;;;42.00;30.10;;;18.20;99.90;;;;;;5057445;28;20457;-81
2022/09/11 11:02:31;;;;;;;49.37;35.90;;;18.10;99.90;;;;;;5058841;28;20473;-81
2022/09/11 11:05:04;;;;;;;42.20;31.20;;;18.00;99.90;;;;;;5059561;28;20442;-79
2022/09/11 11:08:02;;;;;;;49.50;34.40;;;18.10;99.90;;;;;;5061063;28;20551;-80
2022/09/11 11:10:47;;;;;;;55.67;36.77;;;18.10;99.90;;;;;;5023174;28;20986;-78
2022/09/11 11:13:31;;;;;;;52.37;34.10;;;18.10;99.90;;;;;;5056900;28;20439;-80
2022/09/11 11:16:12;;;;;;;48.63;33.70;;;18.20;99.90;;;;;;5056791;28;20464;-80
2022/09/11 11:19:01;;;;;;;49.70;33.93;;;18.10;99.90;;;;;;5057541;28;20448;-79
2022/09/11 11:21:43;;;;;;;45.50;35.30;;;18.10;99.90;;;;;;5057857;28;20487;-80
2022/09/11 11:24:35;;;;;;;51.60;36.87;;;18.00;99.90;;;;;;5056976;28;20487;-80
2022/09/11 11:27:33;;;;;;;51.33;40.10;;;18.10;99.90;;;;;;5057305;28;21018;-81
2022/09/11 11:30:13;;;;;;;55.37;37.97;;;18.10;99.90;;;;;;5058215;28;20462;-81
2022/09/11 11:32:55;;;;;;;51.33;35.57;;;18.10;99.90;;;;;;5058777;28;20479;-81
2022/09/11 11:35:26;;;;;;;50.00;35.53;;;18.30;99.90;;;;;;5056672;28;20551;-79
2022/09/11 11:38:10;;;;;;;60.60;40.43;;;18.40;99.90;;;;;;5053531;28;20457;-81
2022/09/11 11:40:48;;;;;;;57.80;40.63;;;18.40;99.90;;;;;;5058672;28;20455;-80
2022/09/11 11:43:18;;;;;;;48.90;37.00;;;18.30;99.90;;;;;;5058991;28;20569;-78
2022/09/11 11:45:48;;;;;;;43.60;34.10;;;18.40;99.90;;;;;;5055823;28;20461;-81
2022/09/11 11:48:25;;;;;;;53.57;38.90;;;18.60;99.90;;;;;;5056586;28;20485;-80
2022/09/11 11:50:59;;;;;;;44.00;32.23;;;18.80;99.90;;;;;;5055305;28;20461;-79
2022/09/11 11:53:30;;;;;;;45.80;35.20;;;18.90;99.90;;;;;;5056585;28;20484;-77
2022/09/11 11:56:08;;;;;;;47.53;37.07;;;18.90;99.90;;;;;;5058171;28;20464;-82
2022/09/11 11:58:47;;;;;;;49.93;35.30;;;18.70;99.90;;;;;;5055911;28;20436;-80
2022/09/11 12:01:22;;;;;;;45.23;33.50;;;18.70;99.90;;;;;;5058311;28;20477;-79
2022/09/11 12:03:57;;;;;;;46.10;35.70;;;18.60;99.90;;;;;;5058892;28;20986;-79
2022/09/11 12:06:30;;;;;;;52.57;37.70;;;18.60;99.90;;;;;;5059227;28;20497;-80
2022/09/11 12:09:00;;;;;;;48.63;38.20;;;18.70;99.90;;;;;;5058836;28;20509;-79
2022/09/11 12:11:31;;;;;;;50.10;36.00;;;18.70;99.90;;;;;;5050872;28;20836;-79
2022/09/11 12:13:58;;;;;;;52.27;35.70;;;18.90;99.90;;;;;;5055115;28;20456;-81
2022/09/11 12:16:30;;;;;;;42.73;32.20;;;19.00;99.90;;;;;;5045027;28;20832;-80
2022/09/11 12:19:14;;;;;;;50.90;39.00;;;18.80;99.90;;;;;;5051644;28;20544;-79
2022/09/11 12:22:08;;;;;;;54.60;39.10;;;19.10;99.90;;;;;;5052497;28;20465;-79
2022/09/11 12:24:57;;;;;;;36.10;31.20;;;19.20;99.90;;;;;;5049907;28;20816;-83
2022/09/11 12:28:09;;;;;;;42.30;34.07;;;19.80;99.90;;;;;;5037159;28;20506;-79
2022/09/11 12:30:58;;;;;;;30.93;27.60;;;20.80;99.90;;;;;;5039672;28;20453;-80
2022/09/11 12:33:57;;;;;;;32.03;28.67;;;20.90;99.90;;;;;;5036963;28;20425;-79
2022/09/11 12:36:44;;;;;;;30.40;24.90;;;20.50;99.90;;;;;;5036975;28;20465;-80
2022/09/11 12:39:27;;;;;;;36.77;30.93;;;20.50;99.90;;;;;;5050550;28;20539;-79
2022/09/11 12:42:31;;;;;;;30.60;25.43;;;20.30;99.90;;;;;;5057302;28;20468;-80
2022/09/11 12:45:03;;;;;;;33.10;28.47;;;20.30;99.90;;;;;;5056385;28;20448;-80
2022/09/11 12:47:34;;;;;;;31.70;27.30;;;20.50;99.90;;;;;;5042681;28;20479;-81
2022/09/11 12:50:09;;;;;;;30.60;27.27;;;20.80;99.90;;;;;;5050941;28;20530;-81